sensor_id;sensor_type;location;lat;lon;timestamp;temperature;humidity
21037;DHT22;10677;50.942;4.028;2023-12-14T00:01:21;9.20;99.90
21037;DHT22;10677;50.942;4.028;2023-12-14T00:03:47;9.20;99.90
21037;DHT22;10677;50.942;4.028;2023-12-14T00:06:14;9.20;99.90
21037;DHT22;10677;50.942;4.028;2023-12-14T00:08:41;9.30;99.90
21037;DHT22;10677;50.942;4.028;2023-12-14T00:11:08;9.30;99.90
21037;DHT22;10677;50.942;4.028;2023-12-14T00:13:35;9.20;99.90
21037;DHT22;10677;50.942;4.028;2023-12-14T00:16:01;9.20;99.90
21037;DHT22;10677;50.942;4.028;2023-12-14T00:18:26;9.20;99.90
21037;DHT22;10677;50.942;4.028;2023-12-14T00:20:52;9.20;99.90
21037;DHT22;10677;50.942;4.028;2023-12-14T00:23:22;9.30;99.90
21037;DHT22;10677;50.942;4.028;2023-12-14T00:25:49;9.30;99.90
21037;DHT22;10677;50.942;4.028;2023-12-14T00:28:15;9.30;99.90
21037;DHT22;10677;50.942;4.028;2023-12-14T00:30:40;9.30;99.90
21037;DHT22;10677;50.942;4.028;2023-12-14T00:33:06;9.20;99.90
21037;DHT22;10677;50.942;4.028;2023-12-14T00:35:32;9.20;99.90
21037;DHT22;10677;50.942;4.028;2023-12-14T00:37:58;9.20;99.90
21037;DHT22;10677;50.942;4.028;2023-12-14T00:40:23;9.10;99.90
21037;DHT22;10677;50.942;4.028;2023-12-14T00:42:50;9.10;99.90
21037;DHT22;10677;50.942;4.028;2023-12-14T00:45:16;9.10;99.90
21037;DHT22;10677;50.942;4.028;2023-12-14T00:47:45;9.20;99.90
21037;DHT22;10677;50.942;4.028;2023-12-14T00:50:10;9.10;99.90
21037;DHT22;10677;50.942;4.028;2023-12-14T00:52:36;9.20;99.90
21037;DHT22;10677;50.942;4.028;2023-12-14T00:55:02;9.20;99.90
21037;DHT22;10677;50.942;4.028;2023-12-14T00:57:28;9.20;99.90
21037;DHT22;10677;50.942;4.028;2023-12-14T00:59:53;9.20;99.90
21037;DHT22;10677;50.942;4.028;2023-12-14T01:02:19;9.20;99.90
21037;DHT22;10677;50.942;4.028;2023-12-14T01:04:45;9.10;99.90
21037;DHT22;10677;50.942;4.028;2023-12-14T01:07:10;9.10;99.90
21037;DHT22;10677;50.942;4.028;2023-12-14T01:09:36;9.10;99.90
21037;DHT22;10677;50.942;4.028;2023-12-14T01:12:02;9.10;99.90
21037;DHT22;10677;50.942;4.028;2023-12-14T01:14:28;9.10;99.90
21037;DHT22;10677;50.942;4.028;2023-12-14T01:16:53;9.10;99.90
21037;DHT22;10677;50.942;4.028;2023-12-14T01:19:19;9.00;99.90
21037;DHT22;10677;50.942;4.028;2023-12-14T01:21:45;9.00;99.90
21037;DHT22;10677;50.942;4.028;2023-12-14T01:24:11;8.90;99.90
21037;DHT22;10677;50.942;4.028;2023-12-14T01:26:37;8.90;99.90
21037;DHT22;10677;50.942;4.028;2023-12-14T01:29:02;8.80;99.90
21037;DHT22;10677;50.942;4.028;2023-12-14T01:31:28;8.80;99.90
21037;DHT22;10677;50.942;4.028;2023-12-14T01:33:54;8.80;99.90
21037;DHT22;10677;50.942;4.028;2023-12-14T01:36:23;8.80;99.90
21037;DHT22;10677;50.942;4.028;2023-12-14T01:38:50;8.70;99.90
21037;DHT22;10677;50.942;4.028;2023-12-14T01:41:16;8.80;99.90
21037;DHT22;10677;50.942;4.028;2023-12-14T01:43:41;8.70;99.90
21037;DHT22;10677;50.942;4.028;2023-12-14T01:46:07;8.70;99.90
21037;DHT22;10677;50.942;4.028;2023-12-14T01:48:33;8.70;99.90
21037;DHT22;10677;50.942;4.028;2023-12-14T01:50:59;8.60;99.90
21037;DHT22;10677;50.942;4.028;2023-12-14T01:53:26;8.50;99.90
21037;DHT22;10677;50.942;4.028;2023-12-14T01:55:55;8.40;99.90
21037;DHT22;10677;50.942;4.028;2023-12-14T01:58:21;8.40;99.90
21037;DHT22;10677;50.942;4.028;2023-12-14T02:03:30;8.30;99.90
21037;DHT22;10677;50.942;4.028;2023-12-14T02:05:55;8.20;99.90
21037;DHT22;10677;50.942;4.028;2023-12-14T02:08:24;8.20;99.90
21037;DHT22;10677;50.942;4.028;2023-12-14T02:10:50;8.30;99.90
21037;DHT22;10677;50.942;4.028;2023-12-14T02:13:15;8.20;99.90
21037;DHT22;10677;50.942;4.028;2023-12-14T02:15:41;8.20;99.90
21037;DHT22;10677;50.942;4.028;2023-12-14T02:18:07;8.10;99.90
21037;DHT22;10677;50.942;4.028;2023-12-14T02:20:33;8.10;99.90
21037;DHT22;10677;50.942;4.028;2023-12-14T02:22:59;8.00;99.90
21037;DHT22;10677;50.942;4.028;2023-12-14T02:25:24;8.10;99.90
21037;DHT22;10677;50.942;4.028;2023-12-14T02:27:51;8.00;99.90
21037;DHT22;10677;50.942;4.028;2023-12-14T02:30:20;8.00;99.90
21037;DHT22;10677;50.942;4.028;2023-12-14T02:32:45;7.90;99.90
21037;DHT22;10677;50.942;4.028;2023-12-14T02:35:11;7.90;99.90
21037;DHT22;10677;50.942;4.028;2023-12-14T02:37:37;7.90;99.90
21037;DHT22;10677;50.942;4.028;2023-12-14T02:40:04;7.90;99.90
21037;DHT22;10677;50.942;4.028;2023-12-14T02:42:30;7.80;99.90
21037;DHT22;10677;50.942;4.028;2023-12-14T02:44:56;7.70;99.90
21037;DHT22;10677;50.942;4.028;2023-12-14T02:47:22;7.50;99.90
21037;DHT22;10677;50.942;4.028;2023-12-14T02:49:48;7.50;99.90
21037;DHT22;10677;50.942;4.028;2023-12-14T02:52:14;7.50;99.90
21037;DHT22;10677;50.942;4.028;2023-12-14T02:54:40;7.40;99.90
21037;DHT22;10677;50.942;4.028;2023-12-14T02:57:05;7.30;99.90
21037;DHT22;10677;50.942;4.028;2023-12-14T02:59:31;7.30;99.90
21037;DHT22;10677;50.942;4.028;2023-12-14T03:01:57;7.30;99.90
21037;DHT22;10677;50.942;4.028;2023-12-14T03:04:23;7.20;99.90
21037;DHT22;10677;50.942;4.028;2023-12-14T03:06:50;7.30;99.90
21037;DHT22;10677;50.942;4.028;2023-12-14T03:09:15;7.20;99.90
21037;DHT22;10677;50.942;4.028;2023-12-14T03:11:41;7.10;99.90
21037;DHT22;10677;50.942;4.028;2023-12-14T03:14:07;7.10;99.90
21037;DHT22;10677;50.942;4.028;2023-12-14T03:16:32;7.10;99.90
21037;DHT22;10677;50.942;4.028;2023-12-14T03:19:01;7.20;99.90
21037;DHT22;10677;50.942;4.028;2023-12-14T03:21:26;7.10;99.90
21037;DHT22;10677;50.942;4.028;2023-12-14T03:23:55;7.10;99.90
21037;DHT22;10677;50.942;4.028;2023-12-14T03:26:22;7.10;99.90
21037;DHT22;10677;50.942;4.028;2023-12-14T03:28:48;7.00;99.90
21037;DHT22;10677;50.942;4.028;2023-12-14T03:31:14;6.90;99.90
21037;DHT22;10677;50.942;4.028;2023-12-14T03:33:40;7.00;99.90
21037;DHT22;10677;50.942;4.028;2023-12-14T03:36:07;7.00;99.90
21037;DHT22;10677;50.942;4.028;2023-12-14T03:38:33;7.00;99.90
21037;DHT22;10677;50.942;4.028;2023-12-14T03:40:59;7.00;99.90
21037;DHT22;10677;50.942;4.028;2023-12-14T03:43:25;7.00;99.90
21037;DHT22;10677;50.942;4.028;2023-12-14T03:45:50;6.90;99.90
21037;DHT22;10677;50.942;4.028;2023-12-14T03:48:16;6.90;99.90
21037;DHT22;10677;50.942;4.028;2023-12-14T03:50:44;6.90;99.90
21037;DHT22;10677;50.942;4.028;2023-12-14T03:53:10;6.80;99.90
21037;DHT22;10677;50.942;4.028;2023-12-14T03:55:35;6.80;99.90
21037;DHT22;10677;50.942;4.028;2023-12-14T03:58:01;6.80;99.90
21037;DHT22;10677;50.942;4.028;2023-12-14T04:00:27;6.90;99.90
21037;DHT22;10677;50.942;4.028;2023-12-14T04:02:52;6.80;99.90
21037;DHT22;10677;50.942;4.028;2023-12-14T04:05:18;6.80;99.90
21037;DHT22;10677;50.942;4.028;2023-12-14T04:07:44;6.80;99.90
21037;DHT22;10677;50.942;4.028;2023-12-14T04:10:10;6.80;99.90
21037;DHT22;10677;50.942;4.028;2023-12-14T04:12:37;6.80;99.90
21037;DHT22;10677;50.942;4.028;2023-12-14T04:15:04;6.80;99.90
21037;DHT22;10677;50.942;4.028;2023-12-14T04:17:32;6.80;99.90
21037;DHT22;10677;50.942;4.028;2023-12-14T04:19:58;6.80;99.90
21037;DHT22;10677;50.942;4.028;2023-12-14T04:22:23;6.80;99.90
21037;DHT22;10677;50.942;4.028;2023-12-14T04:24:50;6.90;99.90
21037;DHT22;10677;50.942;4.028;2023-12-14T04:27:15;6.90;99.90
21037;DHT22;10677;50.942;4.028;2023-12-14T04:29:41;6.90;99.90
21037;DHT22;10677;50.942;4.028;2023-12-14T04:32:07;6.90;99.90
21037;DHT22;10677;50.942;4.028;2023-12-14T04:34:33;6.90;99.90
21037;DHT22;10677;50.942;4.028;2023-12-14T04:36:58;7.00;99.90
21037;DHT22;10677;50.942;4.028;2023-12-14T04:39:25;7.00;99.90
21037;DHT22;10677;50.942;4.028;2023-12-14T04:41:51;7.00;99.90
21037;DHT22;10677;50.942;4.028;2023-12-14T04:44:18;7.00;99.90
21037;DHT22;10677;50.942;4.028;2023-12-14T04:46:44;7.00;99.90
21037;DHT22;10677;50.942;4.028;2023-12-14T04:49:09;6.90;99.90
21037;DHT22;10677;50.942;4.028;2023-12-14T04:51:35;6.90;99.90
21037;DHT22;10677;50.942;4.028;2023-12-14T04:54:01;6.90;99.90
21037;DHT22;10677;50.942;4.028;2023-12-14T04:56:26;6.90;99.90
21037;DHT22;10677;50.942;4.028;2023-12-14T04:58:52;6.90;99.90
21037;DHT22;10677;50.942;4.028;2023-12-14T05:01:18;6.90;99.90
21037;DHT22;10677;50.942;4.028;2023-12-14T05:03:44;6.90;99.90
21037;DHT22;10677;50.942;4.028;2023-12-14T05:06:09;6.90;99.90
21037;DHT22;10677;50.942;4.028;2023-12-14T05:08:35;6.80;99.90
21037;DHT22;10677;50.942;4.028;2023-12-14T05:11:01;6.90;99.90
21037;DHT22;10677;50.942;4.028;2023-12-14T05:13:26;6.90;99.90
21037;DHT22;10677;50.942;4.028;2023-12-14T05:15:52;7.00;99.90
21037;DHT22;10677;50.942;4.028;2023-12-14T05:18:18;7.00;99.90
21037;DHT22;10677;50.942;4.028;2023-12-14T05:20:44;7.00;99.90
21037;DHT22;10677;50.942;4.028;2023-12-14T05:23:11;7.00;99.90
21037;DHT22;10677;50.942;4.028;2023-12-14T05:25:38;6.90;99.90
21037;DHT22;10677;50.942;4.028;2023-12-14T05:28:04;6.90;99.90
21037;DHT22;10677;50.942;4.028;2023-12-14T05:30:29;7.00;99.90
21037;DHT22;10677;50.942;4.028;2023-12-14T05:32:55;7.00;99.90
21037;DHT22;10677;50.942;4.028;2023-12-14T05:35:21;6.90;99.90
21037;DHT22;10677;50.942;4.028;2023-12-14T05:37:47;7.00;99.90
21037;DHT22;10677;50.942;4.028;2023-12-14T05:40:13;7.00;99.90
21037;DHT22;10677;50.942;4.028;2023-12-14T05:42:39;6.90;99.90
21037;DHT22;10677;50.942;4.028;2023-12-14T05:45:06;7.00;99.90
21037;DHT22;10677;50.942;4.028;2023-12-14T05:47:32;7.00;99.90
21037;DHT22;10677;50.942;4.028;2023-12-14T05:50:02;7.00;99.90
21037;DHT22;10677;50.942;4.028;2023-12-14T05:52:28;7.00;99.90
21037;DHT22;10677;50.942;4.028;2023-12-14T05:54:54;7.00;99.90
21037;DHT22;10677;50.942;4.028;2023-12-14T05:57:20;7.20;99.90
21037;DHT22;10677;50.942;4.028;2023-12-14T05:59:45;7.10;99.90
21037;DHT22;10677;50.942;4.028;2023-12-14T06:02:12;7.20;99.90
21037;DHT22;10677;50.942;4.028;2023-12-14T06:04:39;7.20;99.90
21037;DHT22;10677;50.942;4.028;2023-12-14T06:07:04;7.20;99.90
21037;DHT22;10677;50.942;4.028;2023-12-14T06:09:30;7.10;99.90
21037;DHT22;10677;50.942;4.028;2023-12-14T06:12:03;7.10;99.90
21037;DHT22;10677;50.942;4.028;2023-12-14T06:14:30;7.10;99.90
21037;DHT22;10677;50.942;4.028;2023-12-14T06:16:57;7.10;99.90
21037;DHT22;10677;50.942;4.028;2023-12-14T06:19:23;7.20;99.90
21037;DHT22;10677;50.942;4.028;2023-12-14T06:21:49;7.20;99.90
21037;DHT22;10677;50.942;4.028;2023-12-14T06:24:15;7.20;99.90
21037;DHT22;10677;50.942;4.028;2023-12-14T06:26:43;7.10;99.90
21037;DHT22;10677;50.942;4.028;2023-12-14T06:29:10;7.20;99.90
21037;DHT22;10677;50.942;4.028;2023-12-14T06:31:36;7.20;99.90
21037;DHT22;10677;50.942;4.028;2023-12-14T06:34:02;7.20;99.90
21037;DHT22;10677;50.942;4.028;2023-12-14T06:36:33;7.20;99.90
21037;DHT22;10677;50.942;4.028;2023-12-14T06:38:59;7.20;99.90
21037;DHT22;10677;50.942;4.028;2023-12-14T06:41:27;7.20;99.90
21037;DHT22;10677;50.942;4.028;2023-12-14T06:43:53;7.30;99.90
21037;DHT22;10677;50.942;4.028;2023-12-14T06:46:22;7.10;99.90
21037;DHT22;10677;50.942;4.028;2023-12-14T06:48:50;7.00;99.90
21037;DHT22;10677;50.942;4.028;2023-12-14T06:51:16;6.90;99.90
21037;DHT22;10677;50.942;4.028;2023-12-14T06:57:04;6.80;99.90
21037;DHT22;10677;50.942;4.028;2023-12-14T06:59:30;6.70;99.90
21037;DHT22;10677;50.942;4.028;2023-12-14T07:01:55;6.70;99.90
21037;DHT22;10677;50.942;4.028;2023-12-14T07:04:21;6.70;99.90
21037;DHT22;10677;50.942;4.028;2023-12-14T07:06:51;6.70;99.90
21037;DHT22;10677;50.942;4.028;2023-12-14T07:09:17;6.80;99.90
21037;DHT22;10677;50.942;4.028;2023-12-14T07:11:43;6.80;99.90
21037;DHT22;10677;50.942;4.028;2023-12-14T07:14:09;6.90;99.90
21037;DHT22;10677;50.942;4.028;2023-12-14T07:16:34;7.00;99.90
21037;DHT22;10677;50.942;4.028;2023-12-14T07:19:00;7.10;99.90
21037;DHT22;10677;50.942;4.028;2023-12-14T07:21:26;7.30;99.90
21037;DHT22;10677;50.942;4.028;2023-12-14T07:23:52;7.30;99.90
21037;DHT22;10677;50.942;4.028;2023-12-14T07:26:20;7.30;99.90
21037;DHT22;10677;50.942;4.028;2023-12-14T07:28:48;7.20;99.90
21037;DHT22;10677;50.942;4.028;2023-12-14T07:31:17;7.10;99.90
21037;DHT22;10677;50.942;4.028;2023-12-14T07:33:43;7.10;99.90
21037;DHT22;10677;50.942;4.028;2023-12-14T07:36:10;7.10;99.90
21037;DHT22;10677;50.942;4.028;2023-12-14T07:38:36;7.00;99.90
21037;DHT22;10677;50.942;4.028;2023-12-14T07:41:03;7.10;99.90
21037;DHT22;10677;50.942;4.028;2023-12-14T07:43:29;7.20;99.90
21037;DHT22;10677;50.942;4.028;2023-12-14T07:45:55;7.20;99.90
21037;DHT22;10677;50.942;4.028;2023-12-14T07:48:23;7.30;99.90
21037;DHT22;10677;50.942;4.028;2023-12-14T07:50:49;7.60;99.90
21037;DHT22;10677;50.942;4.028;2023-12-14T07:53:17;7.80;99.90
21037;DHT22;10677;50.942;4.028;2023-12-14T07:55:43;7.80;99.90
21037;DHT22;10677;50.942;4.028;2023-12-14T07:58:10;7.60;99.90
21037;DHT22;10677;50.942;4.028;2023-12-14T08:00:36;7.80;99.90
21037;DHT22;10677;50.942;4.028;2023-12-14T08:03:02;8.30;99.90
21037;DHT22;10677;50.942;4.028;2023-12-14T08:05:29;8.70;99.90
21037;DHT22;10677;50.942;4.028;2023-12-14T08:07:55;8.90;99.90
21037;DHT22;10677;50.942;4.028;2023-12-14T08:10:21;8.80;99.90
21037;DHT22;10677;50.942;4.028;2023-12-14T08:12:47;8.40;99.90
21037;DHT22;10677;50.942;4.028;2023-12-14T08:15:13;8.10;99.90
21037;DHT22;10677;50.942;4.028;2023-12-14T08:17:42;7.70;99.90
21037;DHT22;10677;50.942;4.028;2023-12-14T08:20:09;7.50;99.90
21037;DHT22;10677;50.942;4.028;2023-12-14T08:22:36;7.50;99.90
21037;DHT22;10677;50.942;4.028;2023-12-14T08:25:03;7.60;99.90
21037;DHT22;10677;50.942;4.028;2023-12-14T08:27:29;7.70;99.90
21037;DHT22;10677;50.942;4.028;2023-12-14T08:30:32;7.80;99.90
21037;DHT22;10677;50.942;4.028;2023-12-14T08:32:58;7.70;99.90
21037;DHT22;10677;50.942;4.028;2023-12-14T08:35:24;7.70;99.90
21037;DHT22;10677;50.942;4.028;2023-12-14T08:37:49;7.70;99.90
21037;DHT22;10677;50.942;4.028;2023-12-14T08:40:15;7.80;99.90
21037;DHT22;10677;50.942;4.028;2023-12-14T08:42:41;7.80;99.90
21037;DHT22;10677;50.942;4.028;2023-12-14T08:45:08;7.90;99.90
21037;DHT22;10677;50.942;4.028;2023-12-14T08:47:36;8.00;99.90
21037;DHT22;10677;50.942;4.028;2023-12-14T08:50:02;8.10;99.90
21037;DHT22;10677;50.942;4.028;2023-12-14T08:52:28;7.90;99.90
21037;DHT22;10677;50.942;4.028;2023-12-14T08:54:54;7.90;99.90
21037;DHT22;10677;50.942;4.028;2023-12-14T08:57:20;8.00;99.90
21037;DHT22;10677;50.942;4.028;2023-12-14T08:59:46;8.10;99.90
21037;DHT22;10677;50.942;4.028;2023-12-14T09:05:35;8.40;99.90
21037;DHT22;10677;50.942;4.028;2023-12-14T09:08:01;8.60;99.90
21037;DHT22;10677;50.942;4.028;2023-12-14T09:10:27;8.40;99.90
21037;DHT22;10677;50.942;4.028;2023-12-14T09:12:53;8.50;99.90
21037;DHT22;10677;50.942;4.028;2023-12-14T09:15:19;8.90;99.90
21037;DHT22;10677;50.942;4.028;2023-12-14T09:17:44;8.90;99.90
21037;DHT22;10677;50.942;4.028;2023-12-14T09:20:10;8.80;99.90
21037;DHT22;10677;50.942;4.028;2023-12-14T09:22:41;9.10;99.90
21037;DHT22;10677;50.942;4.028;2023-12-14T09:25:07;9.40;99.90
21037;DHT22;10677;50.942;4.028;2023-12-14T09:27:35;9.50;99.90
21037;DHT22;10677;50.942;4.028;2023-12-14T09:30:01;9.30;99.90
21037;DHT22;10677;50.942;4.028;2023-12-14T09:32:27;9.10;99.90
21037;DHT22;10677;50.942;4.028;2023-12-14T09:34:53;8.80;99.90
21037;DHT22;10677;50.942;4.028;2023-12-14T09:37:22;9.10;99.90
21037;DHT22;10677;50.942;4.028;2023-12-14T09:39:48;8.90;99.90
21037;DHT22;10677;50.942;4.028;2023-12-14T09:42:17;9.00;99.90
21037;DHT22;10677;50.942;4.028;2023-12-14T09:44:44;9.10;99.90
21037;DHT22;10677;50.942;4.028;2023-12-14T09:47:11;9.00;99.90
21037;DHT22;10677;50.942;4.028;2023-12-14T09:49:37;9.00;99.90
21037;DHT22;10677;50.942;4.028;2023-12-14T09:52:03;9.00;99.90
21037;DHT22;10677;50.942;4.028;2023-12-14T09:54:32;9.30;99.90
21037;DHT22;10677;50.942;4.028;2023-12-14T09:56:58;9.50;99.90
21037;DHT22;10677;50.942;4.028;2023-12-14T09:59:25;9.60;99.90
21037;DHT22;10677;50.942;4.028;2023-12-14T10:01:51;9.80;99.90
21037;DHT22;10677;50.942;4.028;2023-12-14T10:04:18;9.70;99.90
21037;DHT22;10677;50.942;4.028;2023-12-14T10:06:46;9.60;99.90
21037;DHT22;10677;50.942;4.028;2023-12-14T10:09:12;9.40;99.90
21037;DHT22;10677;50.942;4.028;2023-12-14T10:11:41;9.20;99.90
21037;DHT22;10677;50.942;4.028;2023-12-14T10:14:24;9.20;99.90
21037;DHT22;10677;50.942;4.028;2023-12-14T10:16:51;9.50;99.90
21037;DHT22;10677;50.942;4.028;2023-12-14T10:19:18;9.60;99.90
21037;DHT22;10677;50.942;4.028;2023-12-14T10:21:46;9.60;99.90
21037;DHT22;10677;50.942;4.028;2023-12-14T10:24:16;9.70;99.90
21037;DHT22;10677;50.942;4.028;2023-12-14T10:26:45;10.10;99.90
21037;DHT22;10677;50.942;4.028;2023-12-14T10:29:11;10.50;99.90
21037;DHT22;10677;50.942;4.028;2023-12-14T10:31:36;10.50;99.90
21037;DHT22;10677;50.942;4.028;2023-12-14T10:34:05;10.50;99.90
21037;DHT22;10677;50.942;4.028;2023-12-14T10:36:31;10.60;99.90
21037;DHT22;10677;50.942;4.028;2023-12-14T10:38:59;10.50;99.90
21037;DHT22;10677;50.942;4.028;2023-12-14T10:41:26;10.10;99.90
21037;DHT22;10677;50.942;4.028;2023-12-14T10:43:56;10.20;99.90
21037;DHT22;10677;50.942;4.028;2023-12-14T10:46:23;10.10;99.90
21037;DHT22;10677;50.942;4.028;2023-12-14T10:48:51;10.00;99.90
21037;DHT22;10677;50.942;4.028;2023-12-14T10:51:22;9.90;99.90
21037;DHT22;10677;50.942;4.028;2023-12-14T10:53:49;9.70;99.90
21037;DHT22;10677;50.942;4.028;2023-12-14T10:56:16;9.40;99.90
21037;DHT22;10677;50.942;4.028;2023-12-14T10:58:52;8.80;99.90
21037;DHT22;10677;50.942;4.028;2023-12-14T11:01:20;8.50;99.90
21037;DHT22;10677;50.942;4.028;2023-12-14T11:03:48;8.50;99.90
21037;DHT22;10677;50.942;4.028;2023-12-14T11:06:31;8.70;99.90
21037;DHT22;10677;50.942;4.028;2023-12-14T11:09:04;8.80;99.90
21037;DHT22;10677;50.942;4.028;2023-12-14T11:11:58;8.50;99.90
21037;DHT22;10677;50.942;4.028;2023-12-14T11:14:26;8.70;99.90
21037;DHT22;10677;50.942;4.028;2023-12-14T11:16:56;9.00;99.90
21037;DHT22;10677;50.942;4.028;2023-12-14T11:24:35;9.70;99.90
21037;DHT22;10677;50.942;4.028;2023-12-14T11:27:06;9.80;99.90
21037;DHT22;10677;50.942;4.028;2023-12-14T11:29:31;10.00;99.90
21037;DHT22;10677;50.942;4.028;2023-12-14T11:31:58;9.90;99.90
21037;DHT22;10677;50.942;4.028;2023-12-14T11:34:27;9.80;99.90
21037;DHT22;10677;50.942;4.028;2023-12-14T11:36:56;10.00;99.90
21037;DHT22;10677;50.942;4.028;2023-12-14T11:39:22;9.90;99.90
21037;DHT22;10677;50.942;4.028;2023-12-14T11:42:02;10.00;99.90
21037;DHT22;10677;50.942;4.028;2023-12-14T11:44:28;10.00;99.90
21037;DHT22;10677;50.942;4.028;2023-12-14T11:46:54;10.10;99.90
21037;DHT22;10677;50.942;4.028;2023-12-14T11:49:19;10.20;99.90
21037;DHT22;10677;50.942;4.028;2023-12-14T11:51:51;10.20;99.90
21037;DHT22;10677;50.942;4.028;2023-12-14T11:54:18;10.10;99.90
21037;DHT22;10677;50.942;4.028;2023-12-14T11:56:50;10.20;99.90
21037;DHT22;10677;50.942;4.028;2023-12-14T11:59:17;10.20;99.90
21037;DHT22;10677;50.942;4.028;2023-12-14T12:02:00;10.30;99.90
21037;DHT22;10677;50.942;4.028;2023-12-14T12:04:27;10.30;99.90
21037;DHT22;10677;50.942;4.028;2023-12-14T12:07:04;10.20;99.90
21037;DHT22;10677;50.942;4.028;2023-12-14T12:09:38;10.40;99.90
21037;DHT22;10677;50.942;4.028;2023-12-14T12:12:07;10.50;99.90
21037;DHT22;10677;50.942;4.028;2023-12-14T12:14:33;10.50;99.90
21037;DHT22;10677;50.942;4.028;2023-12-14T12:16:59;10.30;99.90
21037;DHT22;10677;50.942;4.028;2023-12-14T12:19:25;10.20;99.90
21037;DHT22;10677;50.942;4.028;2023-12-14T12:21:50;10.20;99.90
21037;DHT22;10677;50.942;4.028;2023-12-14T12:24:16;10.30;99.90
21037;DHT22;10677;50.942;4.028;2023-12-14T12:26:44;10.20;99.90
21037;DHT22;10677;50.942;4.028;2023-12-14T12:29:11;10.30;99.90
21037;DHT22;10677;50.942;4.028;2023-12-14T12:31:37;10.30;99.90
21037;DHT22;10677;50.942;4.028;2023-12-14T12:34:03;10.40;99.90
21037;DHT22;10677;50.942;4.028;2023-12-14T12:36:28;10.20;99.90
21037;DHT22;10677;50.942;4.028;2023-12-14T12:39:28;10.30;99.90
21037;DHT22;10677;50.942;4.028;2023-12-14T12:41:54;10.20;99.90
21037;DHT22;10677;50.942;4.028;2023-12-14T12:44:20;10.40;99.90
21037;DHT22;10677;50.942;4.028;2023-12-14T12:46:45;10.40;99.90
21037;DHT22;10677;50.942;4.028;2023-12-14T12:49:11;10.40;99.90
21037;DHT22;10677;50.942;4.028;2023-12-14T12:51:37;10.30;99.90
21037;DHT22;10677;50.942;4.028;2023-12-14T12:54:02;10.30;99.90
21037;DHT22;10677;50.942;4.028;2023-12-14T12:56:29;10.10;99.90
21037;DHT22;10677;50.942;4.028;2023-12-14T12:58:55;10.20;99.90
21037;DHT22;10677;50.942;4.028;2023-12-14T13:01:22;10.20;99.90
21037;DHT22;10677;50.942;4.028;2023-12-14T13:03:54;10.00;99.90
21037;DHT22;10677;50.942;4.028;2023-12-14T13:06:24;10.00;99.90
21037;DHT22;10677;50.942;4.028;2023-12-14T13:08:51;10.30;99.90
21037;DHT22;10677;50.942;4.028;2023-12-14T13:11:20;10.30;99.90
21037;DHT22;10677;50.942;4.028;2023-12-14T13:13:45;10.40;99.90
21037;DHT22;10677;50.942;4.028;2023-12-14T13:16:11;10.00;99.90
21037;DHT22;10677;50.942;4.028;2023-12-14T13:18:42;10.00;99.90
21037;DHT22;10677;50.942;4.028;2023-12-14T13:21:08;9.70;99.90
21037;DHT22;10677;50.942;4.028;2023-12-14T13:23:34;9.80;99.90
21037;DHT22;10677;50.942;4.028;2023-12-14T13:25:59;9.80;99.90
21037;DHT22;10677;50.942;4.028;2023-12-14T13:28:25;9.90;99.90
21037;DHT22;10677;50.942;4.028;2023-12-14T13:30:51;9.90;99.90
21037;DHT22;10677;50.942;4.028;2023-12-14T13:33:16;9.90;99.90
21037;DHT22;10677;50.942;4.028;2023-12-14T13:35:42;9.90;99.90
21037;DHT22;10677;50.942;4.028;2023-12-14T13:38:08;9.80;99.90
21037;DHT22;10677;50.942;4.028;2023-12-14T13:40:34;9.80;99.90
21037;DHT22;10677;50.942;4.028;2023-12-14T13:43:36;9.90;99.90
21037;DHT22;10677;50.942;4.028;2023-12-14T13:46:03;10.10;99.90
21037;DHT22;10677;50.942;4.028;2023-12-14T13:48:29;9.90;99.90
21037;DHT22;10677;50.942;4.028;2023-12-14T13:50:55;9.60;99.90
21037;DHT22;10677;50.942;4.028;2023-12-14T13:53:22;9.50;99.90
21037;DHT22;10677;50.942;4.028;2023-12-14T13:55:48;9.60;99.90
21037;DHT22;10677;50.942;4.028;2023-12-14T13:58:14;9.60;99.90
21037;DHT22;10677;50.942;4.028;2023-12-14T14:00:41;9.50;99.90
21037;DHT22;10677;50.942;4.028;2023-12-14T14:03:07;9.40;99.90
21037;DHT22;10677;50.942;4.028;2023-12-14T14:05:33;9.30;99.90
21037;DHT22;10677;50.942;4.028;2023-12-14T14:08:01;9.20;99.90
21037;DHT22;10677;50.942;4.028;2023-12-14T14:10:27;9.10;99.90
21037;DHT22;10677;50.942;4.028;2023-12-14T14:12:53;9.00;99.90
21037;DHT22;10677;50.942;4.028;2023-12-14T14:15:19;8.90;99.90
21037;DHT22;10677;50.942;4.028;2023-12-14T14:17:46;8.90;99.90
21037;DHT22;10677;50.942;4.028;2023-12-14T14:20:17;8.90;99.90
21037;DHT22;10677;50.942;4.028;2023-12-14T14:22:43;8.90;99.90
21037;DHT22;10677;50.942;4.028;2023-12-14T14:25:09;8.90;99.90
21037;DHT22;10677;50.942;4.028;2023-12-14T14:27:35;8.80;99.90
21037;DHT22;10677;50.942;4.028;2023-12-14T14:30:01;8.90;99.90
21037;DHT22;10677;50.942;4.028;2023-12-14T14:32:28;9.00;99.90
21037;DHT22;10677;50.942;4.028;2023-12-14T14:34:57;8.90;99.90
21037;DHT22;10677;50.942;4.028;2023-12-14T14:37:24;8.90;99.90
21037;DHT22;10677;50.942;4.028;2023-12-14T14:39:50;8.90;99.90
21037;DHT22;10677;50.942;4.028;2023-12-14T14:42:16;8.90;99.90
21037;DHT22;10677;50.942;4.028;2023-12-14T14:44:42;8.90;99.90
21037;DHT22;10677;50.942;4.028;2023-12-14T14:47:11;8.80;99.90
21037;DHT22;10677;50.942;4.028;2023-12-14T14:49:36;8.90;99.90
21037;DHT22;10677;50.942;4.028;2023-12-14T14:52:02;8.90;99.90
21037;DHT22;10677;50.942;4.028;2023-12-14T14:54:28;8.80;99.90
21037;DHT22;10677;50.942;4.028;2023-12-14T14:56:53;8.90;99.90
21037;DHT22;10677;50.942;4.028;2023-12-14T14:59:20;8.80;99.90
21037;DHT22;10677;50.942;4.028;2023-12-14T15:01:47;8.70;99.90
21037;DHT22;10677;50.942;4.028;2023-12-14T15:04:13;8.60;99.90
21037;DHT22;10677;50.942;4.028;2023-12-14T15:06:39;8.70;99.90
21037;DHT22;10677;50.942;4.028;2023-12-14T15:09:05;8.70;99.90
21037;DHT22;10677;50.942;4.028;2023-12-14T15:11:33;8.60;99.90
21037;DHT22;10677;50.942;4.028;2023-12-14T15:13:59;8.60;99.90
21037;DHT22;10677;50.942;4.028;2023-12-14T15:16:24;8.60;99.90
21037;DHT22;10677;50.942;4.028;2023-12-14T15:18:53;8.50;99.90
21037;DHT22;10677;50.942;4.028;2023-12-14T15:21:19;8.50;99.90
21037;DHT22;10677;50.942;4.028;2023-12-14T15:23:45;8.60;99.90
21037;DHT22;10677;50.942;4.028;2023-12-14T15:26:13;8.60;99.90
21037;DHT22;10677;50.942;4.028;2023-12-14T15:28:39;8.60;99.90
21037;DHT22;10677;50.942;4.028;2023-12-14T15:31:06;8.60;99.90
21037;DHT22;10677;50.942;4.028;2023-12-14T15:33:31;8.70;99.90
21037;DHT22;10677;50.942;4.028;2023-12-14T15:35:58;8.90;99.90
21037;DHT22;10677;50.942;4.028;2023-12-14T15:38:24;9.00;99.90
21037;DHT22;10677;50.942;4.028;2023-12-14T15:40:49;9.00;99.90
21037;DHT22;10677;50.942;4.028;2023-12-14T15:43:15;8.90;99.90
21037;DHT22;10677;50.942;4.028;2023-12-14T15:45:41;8.90;99.90
21037;DHT22;10677;50.942;4.028;2023-12-14T15:48:09;9.00;99.90
21037;DHT22;10677;50.942;4.028;2023-12-14T15:50:34;9.30;99.90
21037;DHT22;10677;50.942;4.028;2023-12-14T15:53:00;9.60;99.90
21037;DHT22;10677;50.942;4.028;2023-12-14T15:55:26;9.90;99.90
21037;DHT22;10677;50.942;4.028;2023-12-14T15:57:52;9.90;99.90